sensor_id;sensor_type;location;lat;lon;timestamp;pressure;altitude;pressure_sealevel;temperature;humidity
27210;BME280;14721;42.668;23.386;2024-01-25T00:02:09;95887.19;;;3.62;82.93
27210;BME280;14721;42.668;23.386;2024-01-25T00:04:35;95882.59;;;3.44;84.08
27210;BME280;14721;42.668;23.386;2024-01-25T00:07:00;95886.88;;;3.47;85.40
27210;BME280;14721;42.668;23.386;2024-01-25T00:09:26;95889.94;;;3.59;85.58
27210;BME280;14721;42.668;23.386;2024-01-25T00:11:51;95885.53;;;3.37;85.65
27210;BME280;14721;42.668;23.386;2024-01-25T00:14:23;95859.47;;;3.28;85.76
27210;BME280;14721;42.668;23.386;2024-01-25T00:16:48;95822.78;;;3.20;85.77
27210;BME280;14721;42.668;23.386;2024-01-25T00:19:14;95826.00;;;3.50;86.29
27210;BME280;14721;42.668;23.386;2024-01-25T00:21:43;95788.31;;;3.46;85.50
27210;BME280;14721;42.668;23.386;2024-01-25T00:24:12;95806.19;;;3.61;84.76
27210;BME280;14721;42.668;23.386;2024-01-25T00:26:38;95815.25;;;3.54;84.23
27210;BME280;14721;42.668;23.386;2024-01-25T00:29:06;95800.53;;;3.70;83.27
27210;BME280;14721;42.668;23.386;2024-01-25T00:31:36;95823.56;;;4.10;82.41
27210;BME280;14721;42.668;23.386;2024-01-25T00:37:36;95801.03;;;4.22;78.26
27210;BME280;14721;42.668;23.386;2024-01-25T00:40:05;95823.28;;;4.38;77.29
27210;BME280;14721;42.668;23.386;2024-01-25T00:42:38;95773.31;;;4.10;78.01
27210;BME280;14721;42.668;23.386;2024-01-25T00:45:06;95757.84;;;4.01;79.09
27210;BME280;14721;42.668;23.386;2024-01-25T00:47:32;95759.16;;;3.91;80.45
27210;BME280;14721;42.668;23.386;2024-01-25T00:50:01;95754.44;;;3.77;80.48
27210;BME280;14721;42.668;23.386;2024-01-25T00:52:27;95764.19;;;3.75;80.18
27210;BME280;14721;42.668;23.386;2024-01-25T00:54:56;95797.88;;;3.92;80.26
27210;BME280;14721;42.668;23.386;2024-01-25T00:57:22;95806.06;;;3.64;81.11
27210;BME280;14721;42.668;23.386;2024-01-25T00:59:58;95775.09;;;3.68;80.05
27210;BME280;14721;42.668;23.386;2024-01-25T01:02:54;95815.22;;;3.99;80.59
27210;BME280;14721;42.668;23.386;2024-01-25T01:05:26;95816.44;;;3.90;80.57
27210;BME280;14721;42.668;23.386;2024-01-25T01:07:52;95827.94;;;3.89;81.06
27210;BME280;14721;42.668;23.386;2024-01-25T01:10:19;95782.03;;;3.70;81.97
27210;BME280;14721;42.668;23.386;2024-01-25T01:12:45;95777.84;;;3.86;81.92
27210;BME280;14721;42.668;23.386;2024-01-25T01:15:10;95787.81;;;4.22;81.78
27210;BME280;14721;42.668;23.386;2024-01-25T01:17:36;95757.13;;;4.18;81.52
27210;BME280;14721;42.668;23.386;2024-01-25T01:20:01;95727.69;;;3.85;81.82
27210;BME280;14721;42.668;23.386;2024-01-25T01:22:27;95745.44;;;3.61;82.13
27210;BME280;14721;42.668;23.386;2024-01-25T01:24:53;95765.56;;;3.42;83.73
27210;BME280;14721;42.668;23.386;2024-01-25T01:27:18;95724.56;;;3.11;85.16
27210;BME280;14721;42.668;23.386;2024-01-25T01:29:46;95754.09;;;3.43;84.89
27210;BME280;14721;42.668;23.386;2024-01-25T01:32:11;95731.13;;;3.24;84.63
27210;BME280;14721;42.668;23.386;2024-01-25T01:34:37;95731.06;;;3.25;83.87
27210;BME280;14721;42.668;23.386;2024-01-25T01:37:02;95733.03;;;3.42;84.32
27210;BME280;14721;42.668;23.386;2024-01-25T01:39:28;95665.09;;;3.02;84.57
27210;BME280;14721;42.668;23.386;2024-01-25T01:41:59;95659.59;;;2.85;85.27
27210;BME280;14721;42.668;23.386;2024-01-25T01:44:38;95699.84;;;3.13;85.37
27210;BME280;14721;42.668;23.386;2024-01-25T01:47:03;95719.31;;;3.32;84.39
27210;BME280;14721;42.668;23.386;2024-01-25T01:49:50;95751.72;;;3.79;83.92
27210;BME280;14721;42.668;23.386;2024-01-25T01:52:16;95704.94;;;3.61;82.28
27210;BME280;14721;42.668;23.386;2024-01-25T01:54:45;95701.44;;;3.80;82.06
27210;BME280;14721;42.668;23.386;2024-01-25T01:57:12;95724.75;;;4.13;81.68
27210;BME280;14721;42.668;23.386;2024-01-25T01:59:38;95694.59;;;4.17;80.96
27210;BME280;14721;42.668;23.386;2024-01-25T02:02:03;95680.75;;;4.10;80.56
27210;BME280;14721;42.668;23.386;2024-01-25T02:04:29;95675.63;;;3.87;80.40
27210;BME280;14721;42.668;23.386;2024-01-25T02:06:56;95733.59;;;4.12;80.92
27210;BME280;14721;42.668;23.386;2024-01-25T02:09:24;95734.03;;;4.01;81.00
27210;BME280;14721;42.668;23.386;2024-01-25T02:12:03;95688.44;;;3.76;81.52
27210;BME280;14721;42.668;23.386;2024-01-25T02:14:41;95717.19;;;3.62;82.69
27210;BME280;14721;42.668;23.386;2024-01-25T02:17:10;95725.50;;;3.74;83.06
27210;BME280;14721;42.668;23.386;2024-01-25T02:19:36;95704.38;;;3.53;83.06
27210;BME280;14721;42.668;23.386;2024-01-25T02:22:07;95719.91;;;3.60;83.43
27210;BME280;14721;42.668;23.386;2024-01-25T02:24:35;95712.78;;;3.62;83.77
27210;BME280;14721;42.668;23.386;2024-01-25T02:27:01;95687.94;;;3.25;83.74
27210;BME280;14721;42.668;23.386;2024-01-25T02:29:33;95696.47;;;3.31;84.68
27210;BME280;14721;42.668;23.386;2024-01-25T02:32:01;95664.34;;;3.20;84.80
27210;BME280;14721;42.668;23.386;2024-01-25T02:34:34;95686.72;;;3.12;85.08
27210;BME280;14721;42.668;23.386;2024-01-25T02:37:00;95681.63;;;3.07;86.21
27210;BME280;14721;42.668;23.386;2024-01-25T02:39:36;95705.19;;;3.55;85.73
27210;BME280;14721;42.668;23.386;2024-01-25T02:42:02;95687.94;;;3.66;85.36
27210;BME280;14721;42.668;23.386;2024-01-25T02:44:28;95699.75;;;3.79;84.66
27210;BME280;14721;42.668;23.386;2024-01-25T02:46:54;95710.31;;;4.00;83.63
27210;BME280;14721;42.668;23.386;2024-01-25T02:49:19;95661.38;;;3.69;83.07
27210;BME280;14721;42.668;23.386;2024-01-25T02:51:47;95690.72;;;3.63;83.47
27210;BME280;14721;42.668;23.386;2024-01-25T02:54:13;95678.13;;;3.48;85.11
27210;BME280;14721;42.668;23.386;2024-01-25T02:56:38;95693.28;;;3.45;85.35
27210;BME280;14721;42.668;23.386;2024-01-25T02:59:04;95672.91;;;3.47;85.27
27210;BME280;14721;42.668;23.386;2024-01-25T03:01:43;95668.69;;;3.43;84.61
27210;BME280;14721;42.668;23.386;2024-01-25T03:04:08;95688.59;;;3.51;84.76
27210;BME280;14721;42.668;23.386;2024-01-25T03:06:34;95663.19;;;3.06;85.68
27210;BME280;14721;42.668;23.386;2024-01-25T03:09:20;95669.50;;;3.23;85.89
27210;BME280;14721;42.668;23.386;2024-01-25T03:11:48;95628.75;;;3.09;86.15
27210;BME280;14721;42.668;23.386;2024-01-25T03:14:14;95693.53;;;3.39;86.42
27210;BME280;14721;42.668;23.386;2024-01-25T03:16:43;95660.59;;;3.26;86.70
27210;BME280;14721;42.668;23.386;2024-01-25T03:19:10;95677.63;;;3.40;86.56
27210;BME280;14721;42.668;23.386;2024-01-25T03:21:35;95666.06;;;3.43;86.37
27210;BME280;14721;42.668;23.386;2024-01-25T03:24:01;95663.25;;;3.67;86.28
27210;BME280;14721;42.668;23.386;2024-01-25T03:26:27;95644.44;;;3.75;85.76
27210;BME280;14721;42.668;23.386;2024-01-25T03:28:58;95661.41;;;3.89;85.25
27210;BME280;14721;42.668;23.386;2024-01-25T03:31:24;95679.66;;;3.96;84.46
27210;BME280;14721;42.668;23.386;2024-01-25T03:34:09;95654.25;;;3.51;85.15
27210;BME280;14721;42.668;23.386;2024-01-25T03:36:37;95646.19;;;3.54;85.93
27210;BME280;14721;42.668;23.386;2024-01-25T03:39:05;95685.47;;;4.04;86.83
27210;BME280;14721;42.668;23.386;2024-01-25T03:41:33;95686.59;;;4.18;86.98
27210;BME280;14721;42.668;23.386;2024-01-25T03:43:59;95662.97;;;4.34;86.99
27210;BME280;14721;42.668;23.386;2024-01-25T03:46:24;95601.91;;;4.57;87.90
27210;BME280;14721;42.668;23.386;2024-01-25T03:48:51;95618.53;;;5.14;88.66
27210;BME280;14721;42.668;23.386;2024-01-25T03:51:16;95643.22;;;5.67;88.58
27210;BME280;14721;42.668;23.386;2024-01-25T03:53:46;95619.59;;;6.14;86.40
27210;BME280;14721;42.668;23.386;2024-01-25T03:56:13;95633.63;;;6.66;83.60
27210;BME280;14721;42.668;23.386;2024-01-25T03:58:46;95612.13;;;6.70;82.72
27210;BME280;14721;42.668;23.386;2024-01-25T04:01:31;95608.97;;;6.79;81.35
27210;BME280;14721;42.668;23.386;2024-01-25T04:04:11;95640.38;;;7.04;80.70
27210;BME280;14721;42.668;23.386;2024-01-25T04:06:52;95591.59;;;7.05;78.99
27210;BME280;14721;42.668;23.386;2024-01-25T04:09:25;95618.81;;;7.24;78.25
27210;BME280;14721;42.668;23.386;2024-01-25T04:11:51;95590.03;;;7.16;77.06
27210;BME280;14721;42.668;23.386;2024-01-25T04:14:19;95607.44;;;7.22;76.83
27210;BME280;14721;42.668;23.386;2024-01-25T04:16:47;95583.09;;;6.98;76.64
27210;BME280;14721;42.668;23.386;2024-01-25T04:19:20;95567.00;;;6.70;76.85
27210;BME280;14721;42.668;23.386;2024-01-25T04:21:49;95512.50;;;6.32;77.28
27210;BME280;14721;42.668;23.386;2024-01-25T04:24:24;95534.13;;;6.57;76.86
27210;BME280;14721;42.668;23.386;2024-01-25T04:26:50;95597.75;;;6.74;76.95
27210;BME280;14721;42.668;23.386;2024-01-25T04:29:16;95621.31;;;6.96;76.37
27210;BME280;14721;42.668;23.386;2024-01-25T04:31:45;95585.25;;;6.76;76.69
27210;BME280;14721;42.668;23.386;2024-01-25T04:34:12;95610.25;;;6.88;76.98
27210;BME280;14721;42.668;23.386;2024-01-25T04:36:41;95598.53;;;6.76;76.02
27210;BME280;14721;42.668;23.386;2024-01-25T04:39:10;95575.47;;;6.61;76.64
27210;BME280;14721;42.668;23.386;2024-01-25T04:41:36;95608.97;;;6.79;75.84
27210;BME280;14721;42.668;23.386;2024-01-25T04:44:04;95599.91;;;6.68;76.59
27210;BME280;14721;42.668;23.386;2024-01-25T04:46:30;95618.72;;;6.79;75.80
27210;BME280;14721;42.668;23.386;2024-01-25T04:49:04;95648.66;;;6.82;75.19
27210;BME280;14721;42.668;23.386;2024-01-25T04:51:32;95622.94;;;6.67;74.98
27210;BME280;14721;42.668;23.386;2024-01-25T04:54:00;95635.50;;;6.64;75.30
27210;BME280;14721;42.668;23.386;2024-01-25T04:56:26;95615.56;;;6.24;75.39
27210;BME280;14721;42.668;23.386;2024-01-25T04:58:51;95641.44;;;6.36;75.72
27210;BME280;14721;42.668;23.386;2024-01-25T05:01:20;95648.72;;;6.16;75.72
27210;BME280;14721;42.668;23.386;2024-01-25T05:03:46;95638.75;;;5.87;76.66
27210;BME280;14721;42.668;23.386;2024-01-25T05:06:22;95660.75;;;5.89;76.68
27210;BME280;14721;42.668;23.386;2024-01-25T05:08:47;95665.50;;;5.82;77.09
27210;BME280;14721;42.668;23.386;2024-01-25T05:11:13;95650.09;;;5.54;77.22
27210;BME280;14721;42.668;23.386;2024-01-25T05:13:38;95667.25;;;5.64;77.76
27210;BME280;14721;42.668;23.386;2024-01-25T05:16:04;95652.00;;;5.51;77.91
27210;BME280;14721;42.668;23.386;2024-01-25T05:18:29;95681.38;;;5.65;77.83
27210;BME280;14721;42.668;23.386;2024-01-25T05:20:55;95654.66;;;5.51;77.10
27210;BME280;14721;42.668;23.386;2024-01-25T05:23:20;95684.56;;;5.71;76.99
27210;BME280;14721;42.668;23.386;2024-01-25T05:25:48;95699.16;;;5.80;76.58
27210;BME280;14721;42.668;23.386;2024-01-25T05:28:24;95704.03;;;5.89;76.21
27210;BME280;14721;42.668;23.386;2024-01-25T05:30:50;95662.00;;;5.82;75.80
27210;BME280;14721;42.668;23.386;2024-01-25T05:33:18;95668.47;;;5.93;75.20
27210;BME280;14721;42.668;23.386;2024-01-25T05:35:43;95703.28;;;6.21;74.50
27210;BME280;14721;42.668;23.386;2024-01-25T05:38:09;95696.31;;;6.19;73.71
27210;BME280;14721;42.668;23.386;2024-01-25T05:40:44;95710.44;;;6.36;73.31
27210;BME280;14721;42.668;23.386;2024-01-25T05:43:16;95656.31;;;6.06;73.04
27210;BME280;14721;42.668;23.386;2024-01-25T05:45:45;95710.53;;;6.35;72.79
27210;BME280;14721;42.668;23.386;2024-01-25T05:48:14;95716.97;;;6.46;72.45
27210;BME280;14721;42.668;23.386;2024-01-25T05:50:40;95709.25;;;6.42;72.25
27210;BME280;14721;42.668;23.386;2024-01-25T05:53:06;95700.28;;;6.44;71.75
27210;BME280;14721;42.668;23.386;2024-01-25T05:55:31;95711.13;;;6.57;70.74
27210;BME280;14721;42.668;23.386;2024-01-25T05:57:59;95680.47;;;6.34;71.41
27210;BME280;14721;42.668;23.386;2024-01-25T06:00:25;95690.28;;;6.49;71.02
27210;BME280;14721;42.668;23.386;2024-01-25T06:02:51;95742.41;;;6.67;70.90
27210;BME280;14721;42.668;23.386;2024-01-25T06:08:00;95695.28;;;6.38;71.39
27210;BME280;14721;42.668;23.386;2024-01-25T06:10:34;95721.66;;;6.58;71.02
27210;BME280;14721;42.668;23.386;2024-01-25T06:13:02;95748.63;;;6.83;70.16
27210;BME280;14721;42.668;23.386;2024-01-25T06:15:28;95744.66;;;6.75;70.72
27210;BME280;14721;42.668;23.386;2024-01-25T06:17:54;95700.59;;;6.38;71.11
27210;BME280;14721;42.668;23.386;2024-01-25T06:20:22;95741.78;;;6.62;71.30
27210;BME280;14721;42.668;23.386;2024-01-25T06:22:55;95711.38;;;6.35;71.51
27210;BME280;14721;42.668;23.386;2024-01-25T06:25:23;95700.06;;;6.32;71.55
27210;BME280;14721;42.668;23.386;2024-01-25T06:27:53;95740.06;;;6.61;70.98
27210;BME280;14721;42.668;23.386;2024-01-25T06:30:27;95686.63;;;6.35;70.75
27210;BME280;14721;42.668;23.386;2024-01-25T06:33:26;95730.84;;;6.68;71.04
27210;BME280;14721;42.668;23.386;2024-01-25T06:36:13;95728.00;;;6.56;71.83
27210;BME280;14721;42.668;23.386;2024-01-25T06:38:44;95705.72;;;6.58;71.35
27210;BME280;14721;42.668;23.386;2024-01-25T06:41:20;95739.69;;;6.69;71.03
27210;BME280;14721;42.668;23.386;2024-01-25T06:43:51;95653.50;;;6.09;71.24
27210;BME280;14721;42.668;23.386;2024-01-25T06:46:22;95723.81;;;6.67;71.24
27210;BME280;14721;42.668;23.386;2024-01-25T06:49:00;95711.59;;;6.65;71.62
27210;BME280;14721;42.668;23.386;2024-01-25T06:51:40;95674.03;;;6.55;71.62
27210;BME280;14721;42.668;23.386;2024-01-25T06:54:05;95673.88;;;6.58;71.66
27210;BME280;14721;42.668;23.386;2024-01-25T06:56:41;95630.91;;;6.35;72.08
27210;BME280;14721;42.668;23.386;2024-01-25T06:59:09;95631.19;;;6.46;71.81
27210;BME280;14721;42.668;23.386;2024-01-25T07:01:34;95697.16;;;7.01;71.08
27210;BME280;14721;42.668;23.386;2024-01-25T07:04:03;95684.25;;;7.11;70.47
27210;BME280;14721;42.668;23.386;2024-01-25T07:06:32;95630.56;;;6.73;69.90
27210;BME280;14721;42.668;23.386;2024-01-25T07:09:01;95610.28;;;6.72;69.86
27210;BME280;14721;42.668;23.386;2024-01-25T07:11:28;95693.31;;;7.22;69.98
27210;BME280;14721;42.668;23.386;2024-01-25T07:14:03;95648.41;;;7.02;69.61
27210;BME280;14721;42.668;23.386;2024-01-25T07:16:31;95712.03;;;7.36;69.34
27210;BME280;14721;42.668;23.386;2024-01-25T07:19:11;95694.13;;;7.40;69.39
27210;BME280;14721;42.668;23.386;2024-01-25T07:21:56;95652.50;;;7.39;68.66
27210;BME280;14721;42.668;23.386;2024-01-25T07:24:22;95712.09;;;7.66;68.56
27210;BME280;14721;42.668;23.386;2024-01-25T07:26:47;95713.13;;;7.79;67.66
27210;BME280;14721;42.668;23.386;2024-01-25T07:29:13;95692.03;;;7.60;67.62
27210;BME280;14721;42.668;23.386;2024-01-25T07:31:39;95712.63;;;7.72;67.59
27210;BME280;14721;42.668;23.386;2024-01-25T07:34:04;95733.66;;;7.77;67.37
27210;BME280;14721;42.668;23.386;2024-01-25T07:36:30;95717.50;;;7.64;67.05
27210;BME280;14721;42.668;23.386;2024-01-25T07:38:56;95708.69;;;7.64;67.04
27210;BME280;14721;42.668;23.386;2024-01-25T07:41:22;95652.53;;;7.23;66.97
27210;BME280;14721;42.668;23.386;2024-01-25T07:43:47;95695.06;;;7.54;67.03
27210;BME280;14721;42.668;23.386;2024-01-25T07:46:13;95740.34;;;7.68;67.42
27210;BME280;14721;42.668;23.386;2024-01-25T07:48:43;95708.69;;;7.48;67.17
27210;BME280;14721;42.668;23.386;2024-01-25T07:51:12;95721.66;;;7.54;67.10
27210;BME280;14721;42.668;23.386;2024-01-25T07:53:41;95731.75;;;7.63;67.18
27210;BME280;14721;42.668;23.386;2024-01-25T07:56:07;95722.56;;;7.69;66.72
27210;BME280;14721;42.668;23.386;2024-01-25T07:58:42;95698.16;;;7.62;66.29
27210;BME280;14721;42.668;23.386;2024-01-25T08:01:11;95723.47;;;7.99;65.77
27210;BME280;14721;42.668;23.386;2024-01-25T08:03:44;95717.09;;;8.33;64.29
27210;BME280;14721;42.668;23.386;2024-01-25T08:06:10;95686.41;;;7.96;63.87
27210;BME280;14721;42.668;23.386;2024-01-25T08:08:36;95704.13;;;8.11;64.20
27210;BME280;14721;42.668;23.386;2024-01-25T08:11:02;95708.69;;;8.09;64.04
27210;BME280;14721;42.668;23.386;2024-01-25T08:13:32;95767.59;;;8.48;63.86
27210;BME280;14721;42.668;23.386;2024-01-25T08:16:01;95729.25;;;8.21;63.49
27210;BME280;14721;42.668;23.386;2024-01-25T08:18:28;95756.06;;;8.34;63.50
27210;BME280;14721;42.668;23.386;2024-01-25T08:20:55;95734.09;;;8.15;63.17
27210;BME280;14721;42.668;23.386;2024-01-25T08:23:25;95696.69;;;8.02;63.26
27210;BME280;14721;42.668;23.386;2024-01-25T08:31:14;95739.69;;;8.10;64.13
27210;BME280;14721;42.668;23.386;2024-01-25T08:33:46;95674.78;;;7.67;63.10
27210;BME280;14721;42.668;23.386;2024-01-25T08:45:57;95761.81;;;8.56;61.43
27210;BME280;14721;42.668;23.386;2024-01-25T08:48:22;95693.94;;;8.04;61.57
27210;BME280;14721;42.668;23.386;2024-01-25T08:50:51;95771.72;;;8.54;61.60
27210;BME280;14721;42.668;23.386;2024-01-25T08:53:22;95725.19;;;8.45;60.54
27210;BME280;14721;42.668;23.386;2024-01-25T08:55:55;95708.03;;;8.20;60.65
27210;BME280;14721;42.668;23.386;2024-01-25T09:01:30;95728.75;;;8.30;61.08
27210;BME280;14721;42.668;23.386;2024-01-25T09:03:56;95711.59;;;8.20;61.13
27210;BME280;14721;42.668;23.386;2024-01-25T09:09:56;95722.22;;;8.36;61.69
27210;BME280;14721;42.668;23.386;2024-01-25T09:12:52;95700.34;;;8.15;61.12
27210;BME280;14721;42.668;23.386;2024-01-25T09:15:41;95687.44;;;7.94;62.22
27210;BME280;14721;42.668;23.386;2024-01-25T09:18:19;95731.09;;;8.21;62.76
27210;BME280;14721;42.668;23.386;2024-01-25T09:21:54;95751.94;;;8.58;62.28
27210;BME280;14721;42.668;23.386;2024-01-25T09:25:23;95710.47;;;8.54;62.19
27210;BME280;14721;42.668;23.386;2024-01-25T09:31:02;95753.44;;;8.91;61.44
27210;BME280;14721;42.668;23.386;2024-01-25T09:33:34;95717.53;;;8.83;61.73
27210;BME280;14721;42.668;23.386;2024-01-25T09:42:56;95699.31;;;8.47;61.54
27210;BME280;14721;42.668;23.386;2024-01-25T09:45:44;95659.22;;;8.21;61.95
27210;BME280;14721;42.668;23.386;2024-01-25T09:48:37;95681.88;;;8.28;62.25
27210;BME280;14721;42.668;23.386;2024-01-25T09:54:17;95743.97;;;8.58;62.62
27210;BME280;14721;42.668;23.386;2024-01-25T09:56:56;95729.91;;;8.70;62.11
27210;BME280;14721;42.668;23.386;2024-01-25T09:59:25;95707.63;;;8.71;61.72
27210;BME280;14721;42.668;23.386;2024-01-25T10:01:51;95726.59;;;9.08;60.64
27210;BME280;14721;42.668;23.386;2024-01-25T10:04:25;95679.78;;;8.76;60.81
27210;BME280;14721;42.668;23.386;2024-01-25T10:06:58;95701.38;;;8.72;61.64
27210;BME280;14721;42.668;23.386;2024-01-25T10:09:28;95689.34;;;8.65;62.10
27210;BME280;14721;42.668;23.386;2024-01-25T10:12:11;95658.63;;;8.59;61.86
27210;BME280;14721;42.668;23.386;2024-01-25T10:14:49;95714.31;;;8.92;61.89
27210;BME280;14721;42.668;23.386;2024-01-25T10:17:16;95685.94;;;8.77;61.45
27210;BME280;14721;42.668;23.386;2024-01-25T10:19:45;95633.03;;;8.71;61.70
27210;BME280;14721;42.668;23.386;2024-01-25T10:22:29;95614.69;;;8.66;61.18
27210;BME280;14721;42.668;23.386;2024-01-25T10:25:13;95652.09;;;8.93;61.22
27210;BME280;14721;42.668;23.386;2024-01-25T10:27:46;95675.78;;;8.97;61.45
27210;BME280;14721;42.668;23.386;2024-01-25T10:30:17;95646.94;;;8.62;61.97
27210;BME280;14721;42.668;23.386;2024-01-25T10:32:53;95661.03;;;8.78;62.38
27210;BME280;14721;42.668;23.386;2024-01-25T10:35:23;95665.13;;;8.83;62.36
27210;BME280;14721;42.668;23.386;2024-01-25T10:57:52;95589.19;;;8.48;62.67
27210;BME280;14721;42.668;23.386;2024-01-25T11:00:18;95626.88;;;8.70;62.79
27210;BME280;14721;42.668;23.386;2024-01-25T11:02:46;95632.94;;;8.72;62.92
27210;BME280;14721;42.668;23.386;2024-01-25T11:05:15;95641.03;;;8.71;62.78
27210;BME280;14721;42.668;23.386;2024-01-25T11:07:53;95620.69;;;8.70;62.17
27210;BME280;14721;42.668;23.386;2024-01-25T11:10:25;95657.47;;;9.05;62.02
27210;BME280;14721;42.668;23.386;2024-01-25T11:12:56;95654.81;;;9.19;61.23
27210;BME280;14721;42.668;23.386;2024-01-25T11:15:32;95607.13;;;9.15;61.06
27210;BME280;14721;42.668;23.386;2024-01-25T11:17:58;95607.19;;;9.27;60.29
27210;BME280;14721;42.668;23.386;2024-01-25T11:20:25;95591.31;;;9.12;60.21
27210;BME280;14721;42.668;23.386;2024-01-25T11:23:05;95561.81;;;9.01;60.01
27210;BME280;14721;42.668;23.386;2024-01-25T11:25:32;95589.47;;;9.26;60.16
27210;BME280;14721;42.668;23.386;2024-01-25T11:27:58;95577.50;;;9.19;59.34
27210;BME280;14721;42.668;23.386;2024-01-25T11:30:26;95575.81;;;9.18;60.04
27210;BME280;14721;42.668;23.386;2024-01-25T11:32:52;95567.44;;;9.10;59.26
27210;BME280;14721;42.668;23.386;2024-01-25T11:35:18;95564.69;;;8.98;59.94
27210;BME280;14721;42.668;23.386;2024-01-25T11:37:47;95597.25;;;9.03;59.71
27210;BME280;14721;42.668;23.386;2024-01-25T11:40:15;95579.56;;;8.88;59.44
27210;BME280;14721;42.668;23.386;2024-01-25T11:42:45;95569.38;;;8.80;59.60
27210;BME280;14721;42.668;23.386;2024-01-25T11:45:11;95610.47;;;8.90;60.00
27210;BME280;14721;42.668;23.386;2024-01-25T11:47:38;95618.84;;;8.98;59.45
27210;BME280;14721;42.668;23.386;2024-01-25T11:50:05;95613.44;;;8.86;59.81
27210;BME280;14721;42.668;23.386;2024-01-25T11:52:31;95591.28;;;8.71;59.71
27210;BME280;14721;42.668;23.386;2024-01-25T11:54:59;95588.91;;;8.67;59.88
27210;BME280;14721;42.668;23.386;2024-01-25T11:57:25;95576.34;;;8.69;60.35
27210;BME280;14721;42.668;23.386;2024-01-25T11:59:51;95564.84;;;8.68;59.63
27210;BME280;14721;42.668;23.386;2024-01-25T12:02:17;95594.78;;;8.86;59.14
27210;BME280;14721;42.668;23.386;2024-01-25T12:04:42;95607.03;;;9.02;59.26
27210;BME280;14721;42.668;23.386;2024-01-25T12:07:08;95620.66;;;9.12;59.22
27210;BME280;14721;42.668;23.386;2024-01-25T12:09:34;95600.28;;;8.97;58.93
27210;BME280;14721;42.668;23.386;2024-01-25T12:12:02;95613.91;;;9.06;58.53
27210;BME280;14721;42.668;23.386;2024-01-25T12:14:30;95586.97;;;8.97;58.78
27210;BME280;14721;42.668;23.386;2024-01-25T12:16:56;95551.91;;;8.62;58.87
27210;BME280;14721;42.668;23.386;2024-01-25T12:19:21;95557.41;;;8.59;59.22
27210;BME280;14721;42.668;23.386;2024-01-25T12:21:47;95559.69;;;8.51;59.13
27210;BME280;14721;42.668;23.386;2024-01-25T12:24:13;95574.09;;;8.63;59.82
27210;BME280;14721;42.668;23.386;2024-01-25T12:26:42;95553.53;;;8.51;59.93
27210;BME280;14721;42.668;23.386;2024-01-25T12:29:07;95548.22;;;8.51;59.75
27210;BME280;14721;42.668;23.386;2024-01-25T12:31:37;95556.06;;;8.80;59.33
27210;BME280;14721;42.668;23.386;2024-01-25T12:34:03;95520.53;;;8.67;59.58
27210;BME280;14721;42.668;23.386;2024-01-25T12:36:29;95529.44;;;8.80;59.29
27210;BME280;14721;42.668;23.386;2024-01-25T12:38:54;95522.41;;;8.65;59.13
27210;BME280;14721;42.668;23.386;2024-01-25T12:41:20;95496.28;;;8.58;58.79
27210;BME280;14721;42.668;23.386;2024-01-25T12:43:47;95530.84;;;8.86;58.37
27210;BME280;14721;42.668;23.386;2024-01-25T12:46:14;95507.63;;;8.88;58.05
27210;BME280;14721;42.668;23.386;2024-01-25T12:48:44;95507.09;;;9.09;57.72
27210;BME280;14721;42.668;23.386;2024-01-25T12:51:23;95529.56;;;9.32;57.24
27210;BME280;14721;42.668;23.386;2024-01-25T12:53:50;95519.78;;;9.45;57.45
27210;BME280;14721;42.668;23.386;2024-01-25T12:56:16;95519.13;;;9.68;56.48
27210;BME280;14721;42.668;23.386;2024-01-25T12:58:42;95506.50;;;9.70;56.25
27210;BME280;14721;42.668;23.386;2024-01-25T13:01:08;95507.03;;;9.63;56.09
27210;BME280;14721;42.668;23.386;2024-01-25T13:03:34;95417.84;;;9.15;56.33
27210;BME280;14721;42.668;23.386;2024-01-25T13:06:00;95449.56;;;9.32;56.04
27210;BME280;14721;42.668;23.386;2024-01-25T13:08:28;95481.59;;;9.44;55.12
27210;BME280;14721;42.668;23.386;2024-01-25T13:10:57;95471.59;;;9.61;55.25
27210;BME280;14721;42.668;23.386;2024-01-25T13:13:23;95441.06;;;9.52;54.96
27210;BME280;14721;42.668;23.386;2024-01-25T13:15:58;95488.34;;;9.50;54.85
27210;BME280;14721;42.668;23.386;2024-01-25T13:18:26;95510.19;;;9.42;55.47
27210;BME280;14721;42.668;23.386;2024-01-25T13:20:52;95493.13;;;9.45;55.59
27210;BME280;14721;42.668;23.386;2024-01-25T13:23:18;95475.44;;;9.17;55.96
27210;BME280;14721;42.668;23.386;2024-01-25T13:25:44;95482.13;;;9.10;56.05
27210;BME280;14721;42.668;23.386;2024-01-25T13:28:19;95530.75;;;9.40;55.90
27210;BME280;14721;42.668;23.386;2024-01-25T13:30:45;95518.84;;;9.19;56.38
27210;BME280;14721;42.668;23.386;2024-01-25T13:33:15;95513.25;;;9.10;56.84
27210;BME280;14721;42.668;23.386;2024-01-25T13:35:41;95504.81;;;9.03;56.80
27210;BME280;14721;42.668;23.386;2024-01-25T13:38:16;95446.16;;;8.77;56.96
27210;BME280;14721;42.668;23.386;2024-01-25T13:40:42;95464.88;;;8.89;57.09
27210;BME280;14721;42.668;23.386;2024-01-25T13:43:18;95477.53;;;8.86;57.09
27210;BME280;14721;42.668;23.386;2024-01-25T13:45:46;95466.84;;;8.73;57.48
27210;BME280;14721;42.668;23.386;2024-01-25T13:48:19;95512.75;;;8.91;57.90
27210;BME280;14721;42.668;23.386;2024-01-25T13:50:44;95474.06;;;8.71;57.90
27210;BME280;14721;42.668;23.386;2024-01-25T13:53:33;95500.72;;;8.98;57.82
27210;BME280;14721;42.668;23.386;2024-01-25T13:59:20;95527.56;;;8.95;57.88
27210;BME280;14721;42.668;23.386;2024-01-25T14:01:55;95472.56;;;8.67;57.74
27210;BME280;14721;42.668;23.386;2024-01-25T14:04:41;95524.06;;;8.94;57.84
27210;BME280;14721;42.668;23.386;2024-01-25T14:07:16;95522.16;;;8.96;57.84
27210;BME280;14721;42.668;23.386;2024-01-25T14:10:09;95502.34;;;9.00;58.14
27210;BME280;14721;42.668;23.386;2024-01-25T14:12:45;95510.88;;;9.05;57.37
27210;BME280;14721;42.668;23.386;2024-01-25T14:15:21;95539.06;;;9.09;57.70
27210;BME280;14721;42.668;23.386;2024-01-25T14:17:55;95547.91;;;9.10;57.75
27210;BME280;14721;42.668;23.386;2024-01-25T14:20:25;95511.25;;;8.87;58.21